Time,TemperatureF,DewpointF,PressureIn,WindDirection,WindDirectionDegrees,WindSpeedMPH,WindSpeedGustMPH,Humidity,HourlyPrecipIn,Conditions,Clouds,dailyrainin,SolarRadiationWatts/m^2,SoftwareType,DateUTC
2013-05-07 00:00:00,55.3,48.2,29.44,WSW,241,0.0,0.0,77,0.00,,,0.00,0,Wunderground v.1.15,2013-05-07 04:00:00,
2013-05-07 00:05:00,55.0,48.3,29.44,WSW,241,0.0,0.0,78,0.00,,,0.00,0,Wunderground v.1.15,2013-05-07 04:05:00,
2013-05-07 00:10:00,54.8,48.4,29.44,WSW,241,0.0,1.0,79,0.00,,,0.00,0,Wunderground v.1.15,2013-05-07 04:10:00,
2013-05-07 00:15:00,54.8,48.4,29.44,WSW,241,0.0,1.0,79,0.00,,,0.00,0,Wunderground v.1.15,2013-05-07 04:15:00,
2013-05-07 00:20:00,54.8,48.4,29.44,WSW,241,0.0,0.0,79,0.00,,,0.00,0,Wunderground v.1.15,2013-05-07 04:20:00,
2013-05-07 00:30:00,54.5,48.1,29.44,WSW,241,0.0,0.0,79,0.00,,,0.00,0,Wunderground v.1.15,2013-05-07 04:30:00,
2013-05-07 00:35:00,54.2,48.2,29.44,WSW,241,0.0,0.0,80,0.00,,,0.00,0,Wunderground v.1.15,2013-05-07 04:35:00,
2013-05-07 00:40:00,53.9,47.9,29.44,WSW,240,0.0,1.0,80,0.00,,,0.00,0,Wunderground v.1.15,2013-05-07 04:40:00,
2013-05-07 00:45:00,53.5,47.8,29.44,WSW,240,0.0,1.0,81,0.00,,,0.00,0,Wunderground v.1.15,2013-05-07 04:45:00,
2013-05-07 00:55:00,53.2,47.8,29.44,SW,234,1.0,1.0,82,0.00,,,0.00,0,Wunderground v.1.15,2013-05-07 04:55:00,
2013-05-07 01:00:00,53.0,48.0,29.43,SW,232,1.0,1.0,83,0.00,,,0.00,0,Wunderground v.1.15,2013-05-07 05:00:00,
2013-05-07 01:05:00,52.8,47.8,29.43,SW,232,0.0,1.0,83,0.00,,,0.00,0,Wunderground v.1.15,2013-05-07 05:05:00,
2013-05-07 01:15:00,52.5,47.5,29.43,SW,232,0.0,0.0,83,0.00,,,0.00,0,Wunderground v.1.15,2013-05-07 05:15:00,
2013-05-07 01:20:00,52.2,47.5,29.43,SW,232,0.0,0.0,84,0.00,,,0.00,0,Wunderground v.1.15,2013-05-07 05:20:00,
2013-05-07 01:25:00,52.2,47.5,29.43,SW,230,0.0,0.0,84,0.00,,,0.00,0,Wunderground v.1.15,2013-05-07 05:25:00,
2013-05-07 01:35:00,52.1,47.4,29.43,SW,230,0.0,0.0,84,0.00,,,0.00,0,Wunderground v.1.15,2013-05-07 05:35:00,
2013-05-07 01:40:00,51.9,47.5,29.43,SW,230,0.0,0.0,85,0.00,,,0.00,0,Wunderground v.1.15,2013-05-07 05:40:00,
2013-05-07 01:50:00,51.6,47.2,29.43,SW,230,0.0,0.0,85,0.00,,,0.00,0,Wunderground v.1.15,2013-05-07 05:50:00,
2013-05-07 01:55:00,51.5,47.5,29.43,SW,230,0.0,0.0,86,0.00,,,0.00,0,Wunderground v.1.15,2013-05-07 05:55:00,
2013-05-07 02:06:00,51.1,46.7,29.43,SW,230,0.0,0.0,85,0.00,,,0.00,0,Wunderground v.1.15,2013-05-07 06:06:00,
2013-05-07 02:15:00,50.8,46.8,29.43,SW,230,0.0,0.0,86,0.00,,,0.00,0,Wunderground v.1.15,2013-05-07 06:15:00,
2013-05-07 02:20:00,50.7,47.0,29.43,SW,230,0.0,0.0,87,0.00,,,0.00,0,Wunderground v.1.15,2013-05-07 06:20:00,
2013-05-07 02:30:00,50.6,46.9,29.43,SW,230,0.0,0.0,87,0.00,,,0.00,0,Wunderground v.1.15,2013-05-07 06:30:00,
2013-05-07 02:40:00,50.3,46.6,29.43,SW,230,0.0,1.0,87,0.00,,,0.00,0,Wunderground v.1.15,2013-05-07 06:40:00,
2013-05-07 02:50:00,49.3,45.9,29.42,SW,230,0.0,0.0,88,0.00,,,0.00,0,Wunderground v.1.15,2013-05-07 06:50:00,
2013-05-07 03:00:00,49.0,45.9,29.42,SW,230,0.0,0.0,89,0.00,,,0.00,0,Wunderground v.1.15,2013-05-07 07:00:00,
2013-05-07 03:06:00,48.7,45.6,29.42,SW,230,0.0,0.0,89,0.00,,,0.00,0,Wunderground v.1.15,2013-05-07 07:06:00,
2013-05-07 03:15:00,48.2,45.1,29.42,SW,230,0.0,0.0,89,0.00,,,0.00,0,Wunderground v.1.15,2013-05-07 07:15:00,
2013-05-07 03:25:00,48.0,45.2,29.42,SW,230,0.0,0.0,90,0.00,,,0.00,0,Wunderground v.1.15,2013-05-07 07:25:00,
2013-05-07 03:35:00,47.9,45.4,29.42,SW,230,0.0,0.0,91,0.00,,,0.00,0,Wunderground v.1.15,2013-05-07 07:35:00,
2013-05-07 03:45:00,47.4,44.9,29.42,SW,230,0.0,0.0,91,0.00,,,0.00,0,Wunderground v.1.15,2013-05-07 07:45:00,
2013-05-07 03:55:00,47.1,44.6,29.43,SW,230,0.0,0.0,91,0.00,,,0.00,0,Wunderground v.1.15,2013-05-07 07:55:00,
2013-05-07 04:05:00,46.6,44.1,29.43,SW,230,0.0,0.0,91,0.00,,,0.00,0,Wunderground v.1.15,2013-05-07 08:05:00,
2013-05-07 04:15:00,46.3,43.8,29.43,SW,230,0.0,0.0,91,0.00,,,0.00,0,Wunderground v.1.15,2013-05-07 08:15:00,
2013-05-07 04:20:00,45.8,43.3,29.43,SW,230,0.0,2.0,91,0.00,,,0.00,0,Wunderground v.1.15,2013-05-07 08:20:00,
2013-05-07 04:30:00,45.1,42.9,29.44,SW,230,0.0,0.0,92,0.00,,,0.00,0,Wunderground v.1.15,2013-05-07 08:30:00,
2013-05-07 04:35:00,45.0,42.8,29.44,SW,230,0.0,0.0,92,0.00,,,0.00,0,Wunderground v.1.15,2013-05-07 08:35:00,
2013-05-07 04:40:00,44.9,42.7,29.44,SW,230,0.0,0.0,92,0.00,,,0.00,0,Wunderground v.1.15,2013-05-07 08:40:00,
2013-05-07 04:50:00,44.9,42.7,29.43,SW,230,0.0,0.0,92,0.00,,,0.00,0,Wunderground v.1.15,2013-05-07 08:50:00,
2013-05-07 04:55:00,44.7,42.5,29.43,SW,230,0.0,0.0,92,0.00,,,0.00,0,Wunderground v.1.15,2013-05-07 08:55:00,
2013-05-07 05:06:00,44.5,42.3,29.44,SW,230,0.0,0.0,92,0.00,,,0.00,0,Wunderground v.1.15,2013-05-07 09:06:00,
2013-05-07 05:15:00,44.3,42.4,29.44,SW,230,0.0,0.0,93,0.00,,,0.00,0,Wunderground v.1.15,2013-05-07 09:15:00,
2013-05-07 05:25:00,44.2,42.3,29.43,SW,230,0.0,0.0,93,0.00,,,0.00,0,Wunderground v.1.15,2013-05-07 09:25:00,
2013-05-07 05:35:00,44.1,42.2,29.43,SW,230,0.0,0.0,93,0.00,,,0.00,0,Wunderground v.1.15,2013-05-07 09:35:00,
2013-05-07 05:45:00,43.9,42.0,29.43,SW,230,0.0,0.0,93,0.00,,,0.00,0,Wunderground v.1.15,2013-05-07 09:45:00,
2013-05-07 05:55:00,43.7,41.8,29.43,SW,229,0.0,0.0,93,0.00,,,0.00,7,Wunderground v.1.15,2013-05-07 09:55:00,
2013-05-07 06:05:00,43.6,41.7,29.43,SW,229,0.0,1.0,93,0.00,,,0.00,11,Wunderground v.1.15,2013-05-07 10:05:00,
2013-05-07 06:15:00,44.0,42.4,29.43,SW,229,0.0,1.0,94,0.00,,,0.00,12,Wunderground v.1.15,2013-05-07 10:15:00,
2013-05-07 06:25:00,43.8,42.2,29.44,SW,229,0.0,0.0,94,0.00,,,0.00,16,Wunderground v.1.15,2013-05-07 10:25:00,
2013-05-07 06:35:00,43.7,42.1,29.44,SW,228,0.0,0.0,94,0.00,,,0.00,19,Wunderground v.1.15,2013-05-07 10:35:00,
2013-05-07 06:45:00,44.1,42.5,29.44,East,98,0.0,0.0,94,0.00,,,0.00,21,Wunderground v.1.15,2013-05-07 10:45:00,
2013-05-07 06:55:00,44.5,42.9,29.45,East,98,0.0,0.0,94,0.00,,,0.00,62,Wunderground v.1.15,2013-05-07 10:55:00,
2013-05-07 07:00:00,44.9,43.3,29.45,East,98,0.0,0.0,94,0.00,,,0.00,40,Wunderground v.1.15,2013-05-07 11:00:00,
2013-05-07 07:06:00,45.1,43.5,29.45,East,98,0.0,0.0,94,0.00,,,0.00,93,Wunderground v.1.15,2013-05-07 11:06:00,
2013-05-07 07:15:00,45.8,44.2,29.45,East,94,0.0,1.0,94,0.00,,,0.00,65,Wunderground v.1.15,2013-05-07 11:15:00,
2013-05-07 07:20:00,45.8,44.2,29.45,East,94,0.0,0.0,94,0.00,,,0.00,91,Wunderground v.1.15,2013-05-07 11:20:00,
2013-05-07 07:25:00,45.8,44.2,29.45,East,94,0.0,0.0,94,0.00,,,0.00,239,Wunderground v.1.15,2013-05-07 11:25:00,
2013-05-07 07:35:00,46.3,44.7,29.45,East,94,0.0,0.0,94,0.00,,,0.00,343,Wunderground v.1.15,2013-05-07 11:35:00,
2013-05-07 07:40:00,46.9,45.3,29.45,East,94,0.0,0.0,94,0.00,,,0.00,200,Wunderground v.1.15,2013-05-07 11:40:00,
2013-05-07 07:50:00,47.4,45.8,29.45,East,94,0.0,0.0,94,0.00,,,0.00,58,Wunderground v.1.15,2013-05-07 11:50:00,
2013-05-07 08:00:00,47.6,46.0,29.45,East,94,0.0,1.0,94,0.00,,,0.00,311,Wunderground v.1.15,2013-05-07 12:00:00,
2013-05-07 08:05:00,48.1,46.2,29.45,East,94,0.0,1.0,93,0.00,,,0.00,462,Wunderground v.1.15,2013-05-07 12:05:00,
2013-05-07 08:15:00,49.3,47.4,29.45,East,94,0.0,0.0,93,0.00,,,0.00,332,Wunderground v.1.15,2013-05-07 12:15:00,
2013-05-07 08:25:00,51.4,49.4,29.45,East,94,0.0,0.0,93,0.00,,,0.00,346,Wunderground v.1.15,2013-05-07 12:25:00,
2013-05-07 08:30:00,52.6,50.0,29.45,East,93,0.0,0.0,91,0.00,,,0.00,536,Wunderground v.1.15,2013-05-07 12:30:00,
2013-05-07 08:40:00,54.5,50.4,29.45,East,93,0.0,0.0,86,0.00,,,0.00,548,Wunderground v.1.15,2013-05-07 12:40:00,
2013-05-07 08:50:00,56.9,50.5,29.45,East,94,0.0,0.0,79,0.00,,,0.00,617,Wunderground v.1.15,2013-05-07 12:50:00,
2013-05-07 09:00:00,59.1,50.5,29.45,East,94,0.0,0.0,73,0.00,,,0.00,649,Wunderground v.1.15,2013-05-07 13:00:00,
2013-05-07 09:05:00,60.4,50.2,29.45,East,94,0.0,1.0,69,0.00,,,0.00,663,Wunderground v.1.15,2013-05-07 13:05:00,
2013-05-07 09:15:00,61.8,49.9,29.44,East,91,1.0,1.0,65,0.00,,,0.00,691,Wunderground v.1.15,2013-05-07 13:15:00,
2013-05-07 09:25:00,62.2,50.3,29.44,East,90,1.0,1.0,65,0.00,,,0.00,717,Wunderground v.1.15,2013-05-07 13:25:00,
2013-05-07 09:35:00,63.3,50.5,29.44,ENE,78,1.0,2.0,63,0.00,,,0.00,744,Wunderground v.1.15,2013-05-07 13:35:00,
2013-05-07 09:40:00,63.5,50.2,29.44,ENE,77,1.0,1.0,62,0.00,,,0.00,758,Wunderground v.1.15,2013-05-07 13:40:00,
2013-05-07 09:50:00,64.6,51.7,29.44,NNE,21,1.0,1.0,63,0.00,,,0.00,777,Wunderground v.1.15,2013-05-07 13:50:00,
2013-05-07 10:00:00,65.9,50.2,29.44,East,82,1.0,2.0,57,0.00,,,0.00,803,Wunderground v.1.15,2013-05-07 14:00:00,
2013-05-07 10:05:00,66.5,50.8,29.44,East,79,1.0,2.0,57,0.00,,,0.00,819,Wunderground v.1.15,2013-05-07 14:05:00,
2013-05-07 10:15:00,67.9,50.1,29.44,ENE,75,1.0,4.0,53,0.00,,,0.00,842,Wunderground v.1.15,2013-05-07 14:15:00,
2013-05-07 10:20:00,67.8,51.0,29.43,East,84,1.0,1.0,55,0.00,,,0.00,849,Wunderground v.1.15,2013-05-07 14:20:00,
2013-05-07 10:30:00,68.3,50.0,29.44,ENE,60,2.0,3.0,52,0.00,,,0.00,863,Wunderground v.1.15,2013-05-07 14:30:00,
2013-05-07 10:40:00,68.5,49.1,29.44,ENE,72,2.0,5.0,50,0.00,,,0.00,877,Wunderground v.1.15,2013-05-07 14:40:00,
2013-05-07 10:50:00,69.8,50.9,29.44,SSW,212,2.0,2.0,51,0.00,,,0.00,889,Wunderground v.1.15,2013-05-07 14:50:00,
2013-05-07 10:55:00,70.6,51.1,29.44,North,355,2.0,2.0,50,0.00,,,0.00,898,Wunderground v.1.15,2013-05-07 14:55:00,
2013-05-07 11:00:00,70.8,51.2,29.44,East,92,2.0,2.0,50,0.00,,,0.00,905,Wunderground v.1.15,2013-05-07 15:00:00,
2013-05-07 11:05:00,71.3,51.1,29.44,ENE,68,2.0,2.0,49,0.00,,,0.00,912,Wunderground v.1.15,2013-05-07 15:05:00,
2013-05-07 11:15:00,71.5,49.0,29.44,West,275,2.0,3.0,45,0.00,,,0.00,928,Wunderground v.1.15,2013-05-07 15:15:00,
2013-05-07 11:20:00,71.9,44.9,29.44,SW,219,3.0,3.0,38,0.00,,,0.00,939,Wunderground v.1.15,2013-05-07 15:20:00,
2013-05-07 11:25:00,71.9,46.9,29.43,WSW,248,3.0,5.0,41,0.00,,,0.00,940,Wunderground v.1.15,2013-05-07 15:25:00,
2013-05-07 11:35:00,73.1,43.8,29.43,SW,227,2.0,3.0,35,0.00,,,0.00,954,Wunderground v.1.15,2013-05-07 15:35:00,
2013-05-07 11:45:00,72.4,40.9,29.43,West,265,3.0,4.0,32,0.00,,,0.00,963,Wunderground v.1.15,2013-05-07 15:45:00,
2013-05-07 11:50:00,72.4,40.9,29.43,SW,217,4.0,4.0,32,0.00,,,0.00,967,Wunderground v.1.15,2013-05-07 15:50:00,
2013-05-07 11:55:00,72.3,40.0,29.43,WNW,288,4.0,4.0,31,0.00,,,0.00,972,Wunderground v.1.15,2013-05-07 15:55:00,
2013-05-07 12:05:00,73.0,42.2,29.43,South,171,3.0,9.0,33,0.00,,,0.00,974,Wunderground v.1.15,2013-05-07 16:05:00,
2013-05-07 12:15:00,73.5,42.6,29.43,SW,233,4.0,10.0,33,0.00,,,0.00,981,Wunderground v.1.15,2013-05-07 16:15:00,
2013-05-07 12:25:00,75.1,44.0,29.43,WSW,240,2.0,3.0,33,0.00,,,0.00,988,Wunderground v.1.15,2013-05-07 16:25:00,
2013-05-07 12:30:00,74.7,46.0,29.42,WSW,240,3.0,3.0,36,0.00,,,0.00,981,Wunderground v.1.15,2013-05-07 16:30:00,
2013-05-07 12:40:00,75.3,47.2,29.42,WSW,238,3.0,3.0,37,0.00,,,0.00,979,Wunderground v.1.15,2013-05-07 16:40:00,
2013-05-07 12:50:00,75.7,46.8,29.42,SW,232,2.0,6.0,36,0.00,,,0.00,990,Wunderground v.1.15,2013-05-07 16:50:00,
2013-05-07 12:55:00,74.8,45.3,29.42,SW,219,3.0,6.0,35,0.00,,,0.00,991,Wunderground v.1.15,2013-05-07 16:55:00,
2013-05-07 13:00:00,75.0,46.2,29.42,WSW,244,3.0,3.0,36,0.00,,,0.00,976,Wunderground v.1.15,2013-05-07 17:00:00,
2013-05-07 13:05:00,75.9,46.3,29.41,SSW,210,2.0,3.0,35,0.00,,,0.00,970,Wunderground v.1.15,2013-05-07 17:05:00,
2013-05-07 13:15:00,74.9,43.8,29.41,SW,232,3.0,5.0,33,0.00,,,0.00,972,Wunderground v.1.15,2013-05-07 17:15:00,
2013-05-07 13:25:00,74.7,42.0,29.41,SSW,211,3.0,6.0,31,0.00,,,0.00,956,Wunderground v.1.15,2013-05-07 17:25:00,
2013-05-07 13:35:00,74.7,44.5,29.41,SW,232,3.0,6.0,34,0.00,,,0.00,937,Wunderground v.1.15,2013-05-07 17:35:00,
2013-05-07 13:45:00,75.0,43.9,29.41,SSW,204,3.0,3.0,33,0.00,,,0.00,946,Wunderground v.1.15,2013-05-07 17:45:00,
2013-05-07 13:55:00,76.5,43.6,29.40,SW,221,2.0,2.0,31,0.00,,,0.00,921,Wunderground v.1.15,2013-05-07 17:55:00,
2013-05-07 14:05:00,75.6,41.1,29.40,West,263,3.0,3.0,29,0.00,,,0.00,932,Wunderground v.1.15,2013-05-07 18:05:00,
2013-05-07 14:15:00,76.1,44.1,29.39,WNW,291,2.0,4.0,32,0.00,,,0.00,919,Wunderground v.1.15,2013-05-07 18:15:00,
2013-05-07 14:25:00,76.3,45.1,29.39,East,86,2.0,3.0,33,0.00,,,0.00,886,Wunderground v.1.15,2013-05-07 18:25:00,
2013-05-07 14:35:00,77.8,43.9,29.38,West,259,1.0,3.0,30,0.00,,,0.00,891,Wunderground v.1.15,2013-05-07 18:35:00,
2013-05-07 14:40:00,77.9,45.7,29.38,SW,215,2.0,2.0,32,0.00,,,0.00,875,Wunderground v.1.15,2013-05-07 18:40:00,
2013-05-07 14:50:00,75.8,45.4,29.38,NW,314,5.0,5.0,34,0.00,,,0.00,800,Wunderground v.1.15,2013-05-07 18:50:00,
2013-05-07 15:00:00,75.9,46.3,29.38,SW,217,3.0,3.0,35,0.00,,,0.00,765,Wunderground v.1.15,2013-05-07 19:00:00,
2013-05-07 15:05:00,76.4,44.4,29.38,WSW,246,3.0,7.0,32,0.00,,,0.00,766,Wunderground v.1.15,2013-05-07 19:05:00,
2013-05-07 15:15:00,76.3,45.1,29.37,South,172,4.0,4.0,33,0.00,,,0.00,721,Wunderground v.1.15,2013-05-07 19:15:00,
2013-05-07 15:20:00,77.0,44.0,29.37,SW,236,4.0,5.0,31,0.00,,,0.00,691,Wunderground v.1.15,2013-05-07 19:20:00,
2013-05-07 15:30:00,76.7,45.4,29.37,SW,215,4.0,4.0,33,0.00,,,0.00,675,Wunderground v.1.15,2013-05-07 19:30:00,
2013-05-07 15:35:00,76.5,45.2,29.37,NNW,339,4.0,4.0,33,0.00,,,0.00,708,Wunderground v.1.15,2013-05-07 19:35:00,
2013-05-07 15:45:00,75.9,45.5,29.37,SW,222,4.0,4.0,34,0.00,,,0.00,605,Wunderground v.1.15,2013-05-07 19:45:00,
2013-05-07 15:55:00,75.1,44.0,29.37,SW,214,4.0,11.0,33,0.00,,,0.00,606,Wunderground v.1.15,2013-05-07 19:55:00,
2013-05-07 16:00:00,75.3,43.4,29.37,SSW,209,4.0,5.0,32,0.00,,,0.00,260,Wunderground v.1.15,2013-05-07 20:00:00,
2013-05-07 16:05:00,75.3,44.2,29.37,South,184,3.0,5.0,33,0.00,,,0.00,163,Wunderground v.1.15,2013-05-07 20:05:00,
2013-05-07 16:15:00,76.2,45.8,29.37,SW,234,3.0,3.0,34,0.00,,,0.00,146,Wunderground v.1.15,2013-05-07 20:15:00,
2013-05-07 16:20:00,76.0,44.0,29.36,WNW,290,3.0,3.0,32,0.00,,,0.00,141,Wunderground v.1.15,2013-05-07 20:20:00,
2013-05-07 16:30:00,76.3,45.1,29.36,SW,215,2.0,2.0,33,0.00,,,0.00,134,Wunderground v.1.15,2013-05-07 20:30:00,
2013-05-07 16:35:00,76.3,46.6,29.36,SW,229,2.0,2.0,35,0.00,,,0.00,128,Wunderground v.1.15,2013-05-07 20:35:00,
2013-05-07 16:45:00,76.1,47.2,29.36,South,184,3.0,6.0,36,0.00,,,0.00,125,Wunderground v.1.15,2013-05-07 20:45:00,
2013-05-07 16:55:00,76.3,48.1,29.36,WNW,288,3.0,3.0,37,0.00,,,0.00,116,Wunderground v.1.15,2013-05-07 20:55:00,
2013-05-07 17:05:00,75.2,47.8,29.36,West,280,3.0,6.0,38,0.00,,,0.00,105,Wunderground v.1.15,2013-05-07 21:05:00,
2013-05-07 17:15:00,76.0,48.6,29.36,WSW,255,1.0,2.0,38,0.00,,,0.00,111,Wunderground v.1.15,2013-05-07 21:15:00,
2013-05-07 17:25:00,75.6,50.2,29.36,WSW,248,3.0,3.0,41,0.00,,,0.00,118,Wunderground v.1.15,2013-05-07 21:25:00,
2013-05-07 17:35:00,75.8,51.1,29.35,East,92,2.0,2.0,42,0.00,,,0.00,123,Wunderground v.1.15,2013-05-07 21:35:00,
2013-05-07 17:45:00,75.7,51.6,29.36,SW,230,2.0,5.0,43,0.00,,,0.00,109,Wunderground v.1.15,2013-05-07 21:45:00,
2013-05-07 17:55:00,73.9,52.4,29.36,WSW,238,4.0,4.0,47,0.00,,,0.00,90,Wunderground v.1.15,2013-05-07 21:55:00,
2013-05-07 18:00:00,73.9,52.4,29.36,SW,235,2.0,2.0,47,0.00,,,0.00,90,Wunderground v.1.15,2013-05-07 22:00:00,
2013-05-07 18:06:00,73.5,52.6,29.36,SW,219,2.0,3.0,48,0.00,,,0.00,88,Wunderground v.1.15,2013-05-07 22:06:00,
2013-05-07 18:15:00,72.8,53.1,29.36,SW,235,3.0,4.0,50,0.00,,,0.00,88,Wunderground v.1.15,2013-05-07 22:15:00,
2013-05-07 18:25:00,72.3,53.7,29.36,WSW,248,3.0,6.0,52,0.00,,,0.00,81,Wunderground v.1.15,2013-05-07 22:25:00,
2013-05-07 18:35:00,71.5,54.0,29.36,SW,219,3.0,4.0,54,0.00,,,0.00,79,Wunderground v.1.15,2013-05-07 22:35:00,
2013-05-07 18:45:00,70.6,54.1,29.37,SW,222,4.0,9.0,56,0.00,,,0.00,127,Wunderground v.1.15,2013-05-07 22:45:00,
2013-05-07 18:50:00,70.2,54.7,29.37,WSW,249,4.0,4.0,58,0.00,,,0.00,90,Wunderground v.1.15,2013-05-07 22:50:00,
2013-05-07 19:00:00,69.7,54.7,29.37,SW,229,4.0,7.0,59,0.00,,,0.00,70,Wunderground v.1.15,2013-05-07 23:00:00,
2013-05-07 19:10:00,68.8,54.8,29.38,SW,214,5.0,7.0,61,0.00,,,0.00,67,Wunderground v.1.15,2013-05-07 23:10:00,
2013-05-07 19:20:00,68.5,55.0,29.38,SW,236,4.0,4.0,62,0.00,,,0.00,44,Wunderground v.1.15,2013-05-07 23:20:00,
2013-05-07 19:30:00,68.1,54.6,29.39,SW,219,4.0,4.0,62,0.00,,,0.00,19,Wunderground v.1.15,2013-05-07 23:30:00,
2013-05-07 19:40:00,67.6,55.0,29.39,SSW,198,3.0,3.0,64,0.00,,,0.00,12,Wunderground v.1.15,2013-05-07 23:40:00,
2013-05-07 19:45:00,67.3,54.7,29.39,SW,223,3.0,3.0,64,0.00,,,0.00,11,Wunderground v.1.15,2013-05-07 23:45:00,
2013-05-07 19:55:00,66.6,54.9,29.40,WSW,253,2.0,3.0,66,0.00,,,0.00,0,Wunderground v.1.15,2013-05-07 23:55:00,
2013-05-07 20:05:00,66.1,55.2,29.40,SSW,207,3.0,10.0,68,0.00,,,0.00,0,Wunderground v.1.15,2013-05-08 00:05:00,
2013-05-07 20:15:00,65.6,54.8,29.40,SW,217,4.0,4.0,68,0.00,,,0.00,0,Wunderground v.1.15,2013-05-08 00:15:00,
2013-05-07 20:25:00,65.2,54.8,29.40,SW,226,3.0,3.0,69,0.00,,,0.00,0,Wunderground v.1.15,2013-05-08 00:25:00,
2013-05-07 20:30:00,64.9,54.5,29.40,WSW,246,3.0,3.0,69,0.00,,,0.00,0,Wunderground v.1.15,2013-05-08 00:30:00,
2013-05-07 20:40:00,64.4,54.4,29.40,SW,215,3.0,3.0,70,0.00,,,0.00,0,Wunderground v.1.15,2013-05-08 00:40:00,
2013-05-07 20:50:00,64.1,54.5,29.41,SW,226,2.0,2.0,71,0.00,,,0.00,0,Wunderground v.1.15,2013-05-08 00:50:00,
2013-05-07 21:00:00,63.7,54.5,29.42,SW,221,3.0,7.0,72,0.00,,,0.00,0,Wunderground v.1.15,2013-05-08 01:00:00,
2013-05-07 21:06:00,63.5,54.3,29.42,SW,225,2.0,7.0,72,0.00,,,0.00,0,Wunderground v.1.15,2013-05-08 01:06:00,
2013-05-07 21:15:00,63.2,54.4,29.42,SW,217,2.0,3.0,73,0.00,,,0.00,0,Wunderground v.1.15,2013-05-08 01:15:00,
2013-05-07 21:20:00,62.9,54.5,29.42,WSW,238,2.0,5.0,74,0.00,,,0.00,0,Wunderground v.1.15,2013-05-08 01:20:00,
2013-05-07 21:30:00,62.7,54.7,29.42,SSW,213,3.0,3.0,75,0.00,,,0.00,0,Wunderground v.1.15,2013-05-08 01:30:00,
2013-05-07 21:40:00,62.3,54.6,29.43,WSW,237,2.0,2.0,76,0.00,,,0.00,0,Wunderground v.1.15,2013-05-08 01:40:00,
2013-05-07 21:50:00,62.0,54.7,29.43,WSW,252,1.0,1.0,77,0.00,,,0.00,0,Wunderground v.1.15,2013-05-08 01:50:00,
2013-05-07 21:55:00,61.8,54.9,29.43,SW,223,2.0,2.0,78,0.00,,,0.00,0,Wunderground v.1.15,2013-05-08 01:55:00,
2013-05-07 22:00:00,61.7,54.8,29.43,SW,217,2.0,2.0,78,0.00,,,0.00,0,Wunderground v.1.15,2013-05-08 02:00:00,
2013-05-07 22:06:00,61.6,54.7,29.43,SW,214,1.0,2.0,78,0.00,,,0.00,0,Wunderground v.1.15,2013-05-08 02:06:00,
2013-05-07 22:15:00,61.4,54.8,29.43,SW,226,2.0,4.0,79,0.00,,,0.00,0,Wunderground v.1.15,2013-05-08 02:15:00,
2013-05-07 22:25:00,61.2,55.0,29.43,SW,223,3.0,3.0,80,0.00,,,0.00,0,Wunderground v.1.15,2013-05-08 02:25:00,
2013-05-07 22:35:00,61.0,54.8,29.43,SW,230,2.0,4.0,80,0.00,,,0.00,0,Wunderground v.1.15,2013-05-08 02:35:00,
2013-05-07 22:40:00,60.9,54.7,29.43,SW,233,2.0,2.0,80,0.00,,,0.00,0,Wunderground v.1.15,2013-05-08 02:40:00,
2013-05-07 22:50:00,60.6,54.7,29.43,SW,230,1.0,1.0,81,0.00,,,0.00,0,Wunderground v.1.15,2013-05-08 02:50:00,
2013-05-07 23:00:00,60.3,54.8,29.43,SW,229,1.0,1.0,82,0.00,,,0.00,0,Wunderground v.1.15,2013-05-08 03:00:00,
2013-05-07 23:06:00,60.0,54.5,29.43,SW,230,1.0,1.0,82,0.00,,,0.00,0,Wunderground v.1.15,2013-05-08 03:06:00,
2013-05-07 23:15:00,59.7,54.5,29.43,SSW,212,1.0,2.0,83,0.00,,,0.00,0,Wunderground v.1.15,2013-05-08 03:15:00,
2013-05-07 23:20:00,59.6,54.4,29.43,South,188,1.0,1.0,83,0.00,,,0.00,0,Wunderground v.1.15,2013-05-08 03:20:00,
2013-05-07 23:30:00,59.2,54.4,29.44,SW,235,1.0,1.0,84,0.00,,,0.00,0,Wunderground v.1.15,2013-05-08 03:30:00,
2013-05-07 23:40:00,59.0,54.5,29.44,SW,221,1.0,1.0,85,0.00,,,0.00,0,Wunderground v.1.15,2013-05-08 03:40:00,
2013-05-07 23:45:00,59.0,54.5,29.44,SW,217,1.0,1.0,85,0.00,,,0.00,0,Wunderground v.1.15,2013-05-08 03:45:00,
2013-05-07 23:50:00,58.8,54.6,29.44,West,263,1.0,1.0,86,0.00,,,0.00,0,Wunderground v.1.15,2013-05-08 03:50:00,